Time;durP1;ratioP1;P1;durP2;ratioP2;P2;SDS_P1;SDS_P2;PMS_P1;PMS_P2;Temp;Humidity;BMP_temperature;BMP_pressure;BME280_temperature;BME280_humidity;BME280_pressure;Samples;Min_cycle;Max_cycle;Signal;HPM_P1;HPM_P2
2022/08/23 00:01:32;;;;;;;;;;;16.60;99.90;;;;;;5074347;28;19927;-88
2022/08/23 00:04:02;;;;;;;;;;;16.60;99.90;;;;;;5063124;28;20117;-88
2022/08/23 00:06:29;;;;;;;;;;;16.60;99.90;;;;;;5058035;28;19921;-87
2022/08/23 00:08:56;;;;;;;;;;;16.50;99.90;;;;;;5068921;28;19948;-88
2022/08/23 00:11:27;;;;;;;;;;;16.60;99.90;;;;;;5068695;28;20271;-88
2022/08/23 00:13:54;;;;;;;;;;;16.50;99.90;;;;;;5068543;28;19927;-89
2022/08/23 00:16:21;;;;;;;;;;;16.50;99.90;;;;;;5068758;28;19984;-88
2022/08/23 00:18:48;;;;;;;;;;;16.50;99.90;;;;;;5068933;28;19920;-88
2022/08/23 00:21:16;;;;;;;;;;;16.40;99.90;;;;;;5068912;28;19959;-89
2022/08/23 00:23:43;;;;;;;;;;;16.40;99.90;;;;;;5072867;28;19944;-89
2022/08/23 00:26:10;;;;;;;;;;;16.40;99.90;;;;;;5088226;28;19921;-88
2022/08/23 00:28:36;;;;;;;;;;;16.40;99.90;;;;;;5088427;28;20066;-88
2022/08/23 00:31:03;;;;;;;;;;;16.40;99.90;;;;;;5088349;28;19940;-89
2022/08/23 00:33:30;;;;;;;;;;;16.30;99.90;;;;;;5087638;28;20211;-89
2022/08/23 00:35:57;;;;;;;;;;;16.20;99.90;;;;;;5088047;28;20175;-89
2022/08/23 00:38:25;;;;;;;;;;;16.20;99.90;;;;;;5088374;28;19927;-89
2022/08/23 00:40:52;;;;;;;;;;;16.20;99.90;;;;;;5086304;28;20173;-86
2022/08/23 00:48:55;;;;;;;;;;;16.00;99.90;;;;;;5088340;28;20013;-88
2022/08/23 00:51:23;;;;;;;;;;;15.90;99.90;;;;;;5087752;28;19943;-88
2022/08/23 00:53:54;;;;;;;;;;;15.80;99.90;;;;;;5086779;28;20123;-87
2022/08/23 00:56:22;;;;;;;;;;;15.80;99.90;;;;;;5075842;28;19928;-88
2022/08/23 00:58:49;;;;;;;;;;;15.70;99.90;;;;;;5067363;28;19927;-87
2022/08/23 01:01:17;;;;;;;;;;;15.70;99.90;;;;;;5067196;28;19928;-87
2022/08/23 01:03:46;;;;;;;;;;;15.70;99.90;;;;;;5063573;28;20168;-88
2022/08/23 01:06:14;;;;;;;;;;;15.70;99.90;;;;;;5047107;28;19928;-88
2022/08/23 01:08:44;;;;;;;;;;;15.70;99.90;;;;;;5047798;28;19971;-86
2022/08/23 01:11:14;;;;;;;;;;;15.60;99.90;;;;;;5087303;28;20204;-88
2022/08/23 01:13:44;;;;;;;;;;;15.60;99.90;;;;;;5074910;28;19940;-88
2022/08/23 01:16:13;;;;;;;;;;;15.60;99.90;;;;;;5066680;28;19952;-88
2022/08/23 01:18:42;;;;;;;;;;;15.60;99.90;;;;;;5073600;28;19924;-88
2022/08/23 01:21:12;;;;;;;;;;;15.60;99.90;;;;;;5088679;28;19920;-88
2022/08/23 01:23:43;;;;;;;;;;;15.50;99.90;;;;;;5086732;28;19928;-87
2022/08/23 01:26:11;;;;;;;;;;;15.50;99.90;;;;;;5073896;28;20243;-89
2022/08/23 01:28:39;;;;;;;;;;;15.40;99.90;;;;;;5066561;28;19927;-87
2022/08/23 01:31:06;;;;;;;;;;;15.40;99.90;;;;;;5067046;28;19928;-87
2022/08/23 01:33:33;;;;;;;;;;;15.40;99.90;;;;;;5046280;28;20221;-87
2022/08/23 01:36:01;;;;;;;;;;;15.40;99.90;;;;;;5046863;28;19921;-87
2022/08/23 01:38:27;;;;;;;;;;;15.30;99.90;;;;;;5046398;28;19928;-88
2022/08/23 01:40:55;;;;;;;;;;;15.10;99.90;;;;;;5058394;28;19996;-87
2022/08/23 01:43:22;;;;;;;;;;;15.20;99.90;;;;;;5065331;28;20123;-87
2022/08/23 01:45:50;;;;;;;;;;;15.20;99.90;;;;;;5075492;28;19952;-88
2022/08/23 01:48:17;;;;;;;;;;;15.20;99.90;;;;;;5085649;28;19940;-88
2022/08/23 01:50:45;;;;;;;;;;;15.20;99.90;;;;;;5085286;28;19927;-87
2022/08/23 01:53:12;;;;;;;;;;;15.20;99.90;;;;;;5084326;28;19921;-86
2022/08/23 01:55:39;;;;;;;;;;;15.10;99.90;;;;;;5084795;28;19951;-86
2022/08/23 01:58:07;;;;;;;;;;;15.10;99.90;;;;;;5084566;28;19987;-87
2022/08/23 02:00:36;;;;;;;;;;;15.00;99.90;;;;;;5064849;28;20000;-85
2022/08/23 02:03:03;;;;;;;;;;;15.00;99.90;;;;;;5064136;28;19932;-87
2022/08/23 02:05:30;;;;;;;;;;;14.90;99.90;;;;;;5064420;28;19921;-88
2022/08/23 02:08:59;;;;;;;;;;;14.80;99.90;;;;;;5064329;28;19921;-87
2022/08/23 02:10:44;;;;;;;;;;;14.80;99.90;;;;;;5064662;28;19921;-87
2022/08/23 02:13:12;;;;;;;;;;;14.80;99.90;;;;;;5069968;28;19928;-87
2022/08/23 02:15:41;;;;;;;;;;;14.80;99.90;;;;;;5064931;28;19921;-88
2022/08/23 02:18:09;;;;;;;;;;;14.80;99.90;;;;;;5064527;28;19921;-87
2022/08/23 02:20:36;;;;;;;;;;;14.80;99.90;;;;;;5064182;28;19920;-86
2022/08/23 02:23:03;;;;;;;;;;;14.70;99.90;;;;;;5063536;28;19928;-87
2022/08/23 02:25:29;;;;;;;;;;;14.70;99.90;;;;;;5067807;28;19920;-87
2022/08/23 02:27:56;;;;;;;;;;;14.70;99.90;;;;;;5084430;28;19932;-89
2022/08/23 02:30:24;;;;;;;;;;;14.70;99.90;;;;;;5083866;28;19928;-89
2022/08/23 02:32:51;;;;;;;;;;;14.70;99.90;;;;;;5083464;28;20176;-89
2022/08/23 02:35:17;;;;;;;;;;;14.70;99.90;;;;;;5084533;28;19956;-87
2022/08/23 02:37:44;;;;;;;;;;;14.60;99.90;;;;;;5083920;28;19940;-87
2022/08/23 02:40:11;;;;;;;;;;;14.60;99.90;;;;;;5080728;28;19928;-86
2022/08/23 02:42:38;;;;;;;;;;;14.50;99.90;;;;;;5064837;28;19928;-87
2022/08/23 02:45:07;;;;;;;;;;;14.40;99.90;;;;;;5063813;28;19928;-88
2022/08/23 02:47:36;;;;;;;;;;;14.40;99.90;;;;;;5063730;28;19920;-86
2022/08/23 02:50:03;;;;;;;;;;;14.40;99.90;;;;;;5063864;28;20388;-87
2022/08/23 02:52:29;;;;;;;;;;;14.30;99.90;;;;;;5064169;28;20235;-86
2022/08/23 02:54:56;;;;;;;;;;;14.30;99.90;;;;;;5064816;28;19928;-89
2022/08/23 02:57:23;;;;;;;;;;;14.30;99.90;;;;;;5065360;28;19928;-87
2022/08/23 02:59:51;;;;;;;;;;;14.30;99.90;;;;;;5065728;28;19956;-88
2022/08/23 03:02:17;;;;;;;;;;;14.20;99.90;;;;;;5065448;28;20218;-88
2022/08/23 03:04:45;;;;;;;;;;;14.20;99.90;;;;;;5065410;28;19952;-87
2022/08/23 03:07:12;;;;;;;;;;;14.20;99.90;;;;;;5069534;28;19984;-87
2022/08/23 03:09:39;;;;;;;;;;;14.20;99.90;;;;;;5067995;28;19920;-88
2022/08/23 03:12:06;;;;;;;;;;;14.10;99.90;;;;;;5067760;28;19920;-87
2022/08/23 03:14:33;;;;;;;;;;;14.10;99.90;;;;;;5065162;28;19944;-87
2022/08/23 03:17:00;;;;;;;;;;;14.10;99.90;;;;;;5063064;28;20008;-87
2022/08/23 03:19:27;;;;;;;;;;;14.10;99.90;;;;;;5064899;28;19944;-88
2022/08/23 03:21:55;;;;;;;;;;;14.10;99.90;;;;;;5070719;28;19927;-87
2022/08/23 03:24:22;;;;;;;;;;;14.00;99.90;;;;;;5070736;28;20082;-88
2022/08/23 03:26:49;;;;;;;;;;;14.00;99.90;;;;;;5067125;28;19940;-88
2022/08/23 03:29:15;;;;;;;;;;;14.00;99.90;;;;;;5067002;28;19948;-87
2022/08/23 03:31:42;;;;;;;;;;;14.00;99.90;;;;;;5066655;28;19976;-86
2022/08/23 03:34:09;;;;;;;;;;;13.90;99.90;;;;;;5066441;28;19948;-87
2022/08/23 03:36:36;;;;;;;;;;;13.90;99.90;;;;;;5066686;28;19927;-88
2022/08/23 03:39:05;;;;;;;;;;;13.90;99.90;;;;;;5071848;28;19981;-87
2022/08/23 03:41:31;;;;;;;;;;;13.90;99.90;;;;;;5069099;28;19960;-87
2022/08/23 03:43:58;;;;;;;;;;;13.90;99.90;;;;;;5071655;28;19927;-86
2022/08/23 03:46:25;;;;;;;;;;;13.90;99.90;;;;;;5076289;28;19950;-89
2022/08/23 03:48:52;;;;;;;;;;;13.90;99.90;;;;;;5071552;28;19984;-88
2022/08/23 03:51:20;;;;;;;;;;;13.80;99.90;;;;;;5071264;28;20470;-89
2022/08/23 03:53:48;;;;;;;;;;;13.80;99.90;;;;;;5075635;28;19944;-87
2022/08/23 03:56:22;;;;;;;;;;;13.80;99.90;;;;;;5091555;28;19952;-88
2022/08/23 03:58:49;;;;;;;;;;;13.80;99.90;;;;;;5091982;28;19927;-88
2022/08/23 04:01:16;;;;;;;;;;;13.70;99.90;;;;;;5089758;28;19924;-89
2022/08/23 04:03:43;;;;;;;;;;;13.60;99.90;;;;;;5069971;28;19993;-86
2022/08/23 04:06:10;;;;;;;;;;;13.60;99.90;;;;;;5069627;28;20119;-90
2022/08/23 04:08:36;;;;;;;;;;;13.60;99.90;;;;;;5070274;28;20198;-89
2022/08/23 04:11:03;;;;;;;;;;;13.60;99.90;;;;;;5070433;28;19920;-89
2022/08/23 04:13:32;;;;;;;;;;;13.50;99.90;;;;;;5069317;28;19920;-89
2022/08/23 04:16:01;;;;;;;;;;;13.50;99.90;;;;;;5070005;28;19948;-89
2022/08/23 04:18:29;;;;;;;;;;;13.50;99.90;;;;;;5088398;28;20004;-89
2022/08/23 04:20:55;;;;;;;;;;;13.50;99.90;;;;;;5089327;28;20133;-89
2022/08/23 04:23:23;;;;;;;;;;;13.40;99.90;;;;;;5089180;28;19920;-88
2022/08/23 04:25:50;;;;;;;;;;;13.40;99.90;;;;;;5089406;28;20183;-89
2022/08/23 04:28:17;;;;;;;;;;;13.40;99.90;;;;;;5089566;28;19928;-89
2022/08/23 04:30:45;;;;;;;;;;;13.30;99.90;;;;;;5089339;28;19940;-87
2022/08/23 04:33:12;;;;;;;;;;;13.30;99.90;;;;;;5088518;28;19928;-88
2022/08/23 04:35:40;;;;;;;;;;;13.30;99.90;;;;;;5088852;28;19924;-88
2022/08/23 04:38:07;;;;;;;;;;;13.30;99.90;;;;;;5088773;28;19921;-89
2022/08/23 04:43:18;;;;;;;;;;;13.30;99.90;;;;;;5068001;28;20151;-89
2022/08/23 04:45:46;;;;;;;;;;;13.30;99.90;;;;;;5068083;28;19936;-89
2022/08/23 04:48:25;;;;;;;;;;;13.20;99.90;;;;;;5064264;28;19955;-89
2022/08/23 04:50:51;;;;;;;;;;;13.20;99.90;;;;;;5057939;28;19921;-89
2022/08/23 04:53:19;;;;;;;;;;;13.20;99.90;;;;;;5068291;28;19927;-89
2022/08/23 04:55:46;;;;;;;;;;;13.20;99.90;;;;;;5067916;28;19921;-89
2022/08/23 04:58:50;;;;;;;;;;;13.20;99.90;;;;;;5065432;28;19921;-88
2022/08/23 05:01:18;;;;;;;;;;;13.20;99.90;;;;;;5066403;28;19921;-88
2022/08/23 05:03:45;;;;;;;;;;;13.20;99.90;;;;;;5047816;28;19926;-88
2022/08/23 05:06:12;;;;;;;;;;;13.20;99.90;;;;;;5047619;28;19921;-87
2022/08/23 05:08:38;;;;;;;;;;;13.20;99.90;;;;;;5047733;28;19924;-86
2022/08/23 05:11:06;;;;;;;;;;;13.20;99.90;;;;;;5047131;28;19932;-89
2022/08/23 05:13:34;;;;;;;;;;;13.20;99.90;;;;;;5046951;28;19921;-89
2022/08/23 05:16:00;;;;;;;;;;;13.20;99.90;;;;;;5046430;28;19989;-87
2022/08/23 05:18:28;;;;;;;;;;;13.30;99.90;;;;;;5046089;28;19921;-87
2022/08/23 05:20:55;;;;;;;;;;;13.30;99.90;;;;;;5046181;28;19929;-88
2022/08/23 05:23:22;;;;;;;;;;;13.30;99.90;;;;;;5046299;28;19960;-87
2022/08/23 05:25:51;;;;;;;;;;;13.40;99.90;;;;;;5045869;28;19921;-91
2022/08/23 05:28:18;;;;;;;;;;;13.40;99.90;;;;;;5046406;28;20145;-87
2022/08/23 05:30:45;;;;;;;;;;;13.50;99.90;;;;;;5046123;28;19959;-87
2022/08/23 05:33:12;;;;;;;;;;;13.50;99.90;;;;;;5051527;28;19977;-90
2022/08/23 05:35:40;;;;;;;;;;;13.50;99.90;;;;;;5049854;28;19925;-90
2022/08/23 05:38:07;;;;;;;;;;;13.60;99.90;;;;;;5059460;28;20174;-90
2022/08/23 05:40:33;;;;;;;;;;;13.70;99.90;;;;;;5077206;28;19921;-88
2022/08/23 05:43:00;;;;;;;;;;;13.70;99.90;;;;;;5065796;28;19983;-89
2022/08/23 05:45:27;;;;;;;;;;;13.80;99.90;;;;;;5066848;28;19921;-88
2022/08/23 05:47:53;;;;;;;;;;;13.90;99.90;;;;;;5066939;28;20250;-90
2022/08/23 05:50:21;;;;;;;;;;;13.90;99.90;;;;;;5070914;28;19920;-90
2022/08/23 05:52:49;;;;;;;;;;;14.00;99.90;;;;;;5070133;28;20147;-88
2022/08/23 05:55:16;;;;;;;;;;;13.90;99.90;;;;;;5089541;28;19920;-88
2022/08/23 05:57:43;;;;;;;;;;;14.10;99.90;;;;;;5086557;28;19950;-88
2022/08/23 06:00:12;;;;;;;;;;;14.20;99.90;;;;;;5087960;28;19921;-89
2022/08/23 06:02:38;;;;;;;;;;;14.30;99.90;;;;;;5085897;28;19920;-88
2022/08/23 06:05:06;;;;;;;;;;;14.30;99.90;;;;;;5081630;28;19921;-88
2022/08/23 06:07:33;;;;;;;;;;;14.40;99.90;;;;;;5067092;28;20195;-89
2022/08/23 06:10:01;;;;;;;;;;;14.40;99.90;;;;;;5066549;28;19920;-87
2022/08/23 06:12:28;;;;;;;;;;;14.50;99.90;;;;;;5069646;28;19959;-87
2022/08/23 06:14:55;;;;;;;;;;;14.50;99.90;;;;;;5069341;28;19931;-86
2022/08/23 06:17:21;;;;;;;;;;;14.60;99.90;;;;;;5066196;28;19921;-88
2022/08/23 06:19:48;;;;;;;;;;;14.70;99.90;;;;;;5071804;28;20018;-90
2022/08/23 06:22:15;;;;;;;;;;;14.70;99.90;;;;;;5085891;28;19960;-88
2022/08/23 06:24:42;;;;;;;;;;;14.90;99.90;;;;;;5082613;28;19929;-89
2022/08/23 06:27:11;;;;;;;;;;;14.90;99.90;;;;;;5065852;28;20131;-88
2022/08/23 06:29:38;;;;;;;;;;;15.00;99.90;;;;;;5065794;28;19927;-88
2022/08/23 06:32:05;;;;;;;;;;;15.00;99.90;;;;;;5065620;28;19921;-88
2022/08/23 06:34:33;;;;;;;;;;;15.10;99.90;;;;;;5064804;28;19959;-87
2022/08/23 06:37:00;;;;;;;;;;;15.10;99.90;;;;;;5066632;28;19920;-87
2022/08/23 06:39:29;;;;;;;;;;;15.20;99.90;;;;;;5060841;28;19921;-86
2022/08/23 06:41:59;;;;;;;;;;;15.30;99.90;;;;;;5065894;28;19932;-87
2022/08/23 06:44:28;;;;;;;;;;;15.30;99.90;;;;;;5064750;28;19921;-88
2022/08/23 06:46:56;;;;;;;;;;;15.40;99.90;;;;;;5064701;28;20192;-88
2022/08/23 06:49:22;;;;;;;;;;;15.60;99.90;;;;;;5064884;28;19921;-89
2022/08/23 06:51:50;;;;;;;;;;;15.60;99.90;;;;;;5064750;28;19950;-88
2022/08/23 06:54:19;;;;;;;;;;;15.70;99.90;;;;;;5064282;28;19928;-87
2022/08/23 06:56:48;;;;;;;;;;;15.80;99.90;;;;;;5062305;28;19988;-88
2022/08/23 06:59:15;;;;;;;;;;;15.90;99.90;;;;;;5064472;28;20162;-87
2022/08/23 07:01:45;;;;;;;;;;;16.00;99.90;;;;;;5063984;28;19955;-87
2022/08/23 07:04:13;;;;;;;;;;;16.20;99.90;;;;;;5063790;28;19940;-87
2022/08/23 07:06:40;;;;;;;;;;;16.30;99.90;;;;;;5063551;28;19971;-88
2022/08/23 07:09:07;;;;;;;;;;;16.50;99.90;;;;;;5063409;28;19951;-87
2022/08/23 07:11:34;;;;;;;;;;;16.60;99.90;;;;;;5064000;28;19928;-88
2022/08/23 07:14:02;;;;;;;;;;;16.70;99.90;;;;;;5068813;28;20129;-87
2022/08/23 07:16:32;;;;;;;;;;;16.80;99.90;;;;;;5077119;28;19920;-85
2022/08/23 07:19:00;;;;;;;;;;;17.00;99.90;;;;;;5072110;28;19927;-87
2022/08/23 07:21:27;;;;;;;;;;;17.20;99.90;;;;;;5067643;28;20216;-87
2022/08/23 07:23:54;;;;;;;;;;;17.30;99.90;;;;;;5063836;28;19928;-88
2022/08/23 07:26:21;;;;;;;;;;;17.50;99.90;;;;;;5070080;28;19943;-87
2022/08/23 07:28:48;;;;;;;;;;;17.70;99.90;;;;;;5064947;28;19928;-87
2022/08/23 07:31:17;;;;;;;;;;;17.90;99.90;;;;;;5071329;28;19967;-86
2022/08/23 07:33:44;;;;;;;;;;;18.00;99.90;;;;;;5063563;28;19959;-86
2022/08/23 07:36:15;;;;;;;;;;;18.00;99.90;;;;;;5061334;28;19955;-87
2022/08/23 07:38:42;;;;;;;;;;;18.20;99.90;;;;;;5063318;28;20148;-86
2022/08/23 07:41:09;;;;;;;;;;;18.20;99.90;;;;;;5057019;28;20187;-86
2022/08/23 07:43:36;;;;;;;;;;;18.30;99.90;;;;;;5061124;28;19948;-86
2022/08/23 07:46:03;;;;;;;;;;;18.50;99.90;;;;;;5082173;28;20204;-86
2022/08/23 07:48:30;;;;;;;;;;;18.60;99.90;;;;;;5072615;28;20215;-85
2022/08/23 07:50:58;;;;;;;;;;;18.70;99.90;;;;;;5067854;28;19932;-86
2022/08/23 07:53:26;;;;;;;;;;;18.70;99.90;;;;;;5073790;28;19921;-88
2022/08/23 07:55:53;;;;;;;;;;;18.70;99.90;;;;;;5073459;28;19944;-89
2022/08/23 07:58:20;;;;;;;;;;;18.70;99.90;;;;;;5068311;28;19952;-88
2022/08/23 08:00:47;;;;;;;;;;;18.80;99.90;;;;;;5066649;28;19921;-88
2022/08/23 08:03:15;;;;;;;;;;;19.00;99.90;;;;;;5065168;28;20169;-86
2022/08/23 08:05:41;;;;;;;;;;;19.10;99.90;;;;;;5066780;28;19920;-87
2022/08/23 08:08:08;;;;;;;;;;;19.10;99.90;;;;;;5069060;28;19921;-89
2022/08/23 08:10:37;;;;;;;;;;;19.10;99.90;;;;;;5069254;28;19920;-88
2022/08/23 08:13:03;;;;;;;;;;;19.20;99.90;;;;;;5068201;28;20093;-88
2022/08/23 08:15:30;;;;;;;;;;;19.20;99.90;;;;;;5068302;28;19988;-87
2022/08/23 08:17:57;;;;;;;;;;;19.30;99.90;;;;;;5067736;28;19920;-87
2022/08/23 08:20:27;;;;;;;;;;;19.40;99.90;;;;;;5068210;28;20127;-88
2022/08/23 08:22:54;;;;;;;;;;;19.50;99.90;;;;;;5066905;28;20046;-88
2022/08/23 08:25:20;;;;;;;;;;;19.60;99.90;;;;;;5067816;28;19949;-89
2022/08/23 08:27:48;;;;;;;;;;;19.70;99.90;;;;;;5067918;28;20120;-86
2022/08/23 08:30:15;;;;;;;;;;;19.80;99.90;;;;;;5067855;28;19921;-89
2022/08/23 08:32:42;;;;;;;;;;;19.90;99.90;;;;;;5067747;28;19948;-88
2022/08/23 08:35:09;;;;;;;;;;;20.00;99.90;;;;;;5068475;28;19920;-88
2022/08/23 08:37:37;;;;;;;;;;;20.00;99.90;;;;;;5067994;28;19951;-88
2022/08/23 08:40:05;;;;;;;;;;;20.10;99.90;;;;;;5068050;28;19988;-89
2022/08/23 08:42:38;;;;;;;;;;;20.20;99.90;;;;;;5059248;28;19992;-88
2022/08/23 08:45:09;;;;;;;;;;;20.30;99.90;;;;;;5067392;28;19921;-90
2022/08/23 08:47:39;;;;;;;;;;;20.50;99.90;;;;;;5067517;28;19921;-87
2022/08/23 08:50:09;;;;;;;;;;;20.60;99.90;;;;;;5066715;28;19921;-87
2022/08/23 08:52:38;;;;;;;;;;;20.60;99.90;;;;;;5066450;28;19941;-87
2022/08/23 08:55:06;;;;;;;;;;;20.70;99.90;;;;;;5066622;28;19928;-86
2022/08/23 08:57:37;;;;;;;;;;;20.80;99.90;;;;;;5066441;28;19928;-87
2022/08/23 09:00:07;;;;;;;;;;;20.90;99.90;;;;;;5066865;28;19945;-87
2022/08/23 09:02:35;;;;;;;;;;;21.10;99.90;;;;;;5066182;28;20237;-87
2022/08/23 09:05:03;;;;;;;;;;;21.10;99.90;;;;;;5066216;28;19921;-87
2022/08/23 09:07:36;;;;;;;;;;;21.10;99.90;;;;;;5066203;28;19943;-88
2022/08/23 09:10:30;;;;;;;;;;;21.20;99.90;;;;;;5073857;28;19988;-86
2022/08/23 09:13:02;;;;;;;;;;;21.20;99.90;;;;;;5046753;28;19920;-91
2022/08/23 09:15:34;;;;;;;;;;;21.30;99.90;;;;;;5094338;28;19920;-91
2022/08/23 09:18:06;;;;;;;;;;;21.40;99.90;;;;;;5087947;28;20124;-90
2022/08/23 09:20:33;;;;;;;;;;;21.50;99.90;;;;;;5078531;28;19909;-89
2022/08/23 09:23:05;;;;;;;;;;;21.60;99.90;;;;;;5081289;28;19920;-91
2022/08/23 09:25:32;;;;;;;;;;;21.70;99.90;;;;;;5083669;28;19916;-89
2022/08/23 09:27:59;;;;;;;;;;;21.70;99.90;;;;;;5074154;28;19913;-89
2022/08/23 09:30:41;;;;;;;;;;;21.80;99.90;;;;;;5078772;28;19935;-89
2022/08/23 09:33:16;;;;;;;;;;;21.90;99.90;;;;;;5076744;28;19925;-90
2022/08/23 09:35:43;;;;;;;;;;;21.90;99.90;;;;;;5076773;28;19909;-91
2022/08/23 09:38:18;;;;;;;;;;;22.10;99.90;;;;;;5077218;28;19931;-91
2022/08/23 09:40:46;;;;;;;;;;;22.10;99.90;;;;;;5078162;28;19980;-90
2022/08/23 09:43:15;;;;;;;;;;;22.20;99.90;;;;;;5076330;28;19927;-92
2022/08/23 09:45:43;;;;;;;;;;;22.20;99.90;;;;;;5072833;28;19925;-91
2022/08/23 09:48:13;;;;;;;;;;;22.20;99.90;;;;;;5075049;28;19920;-91
2022/08/23 09:50:42;;;;;;;;;;;22.20;99.90;;;;;;5067566;28;19941;-90
2022/08/23 09:53:10;;;;;;;;;;;22.30;99.90;;;;;;5066540;28;19921;-90
2022/08/23 09:55:38;;;;;;;;;;;22.40;99.90;;;;;;5067181;28;19940;-91
2022/08/23 09:58:06;;;;;;;;;;;22.50;99.90;;;;;;5071167;28;19951;-91
2022/08/23 10:00:34;;;;;;;;;;;22.50;99.90;;;;;;5074480;28;19940;-91
2022/08/23 10:03:21;;;;;;;;;;;22.50;99.90;;;;;;5072187;28;20175;-90
2022/08/23 10:05:52;;;;;;;;;;;22.50;99.90;;;;;;5072803;28;19921;-92
2022/08/23 10:08:23;;;;;;;;;;;22.60;99.90;;;;;;5070757;28;19928;-92
2022/08/23 10:10:52;;;;;;;;;;;22.70;99.90;;;;;;5072489;28;19920;-89
2022/08/23 10:13:19;;;;;;;;;;;22.90;99.90;;;;;;5072252;28;19920;-89
2022/08/23 10:15:52;;;;;;;;;;;23.10;99.90;;;;;;5069433;28;19989;-92
2022/08/23 10:18:24;;;;;;;;;;;23.10;99.90;;;;;;5070707;28;19980;-89
2022/08/23 10:20:55;;;;;;;;;;;23.30;99.90;;;;;;5063062;28;19996;-92
2022/08/23 10:23:28;;;;;;;;;;;23.30;99.90;;;;;;5068611;28;19921;-92
2022/08/23 10:25:57;;;;;;;;;;;23.40;99.90;;;;;;5066781;28;19931;-91
2022/08/23 10:31:14;;;;;;;;;;;23.60;99.90;;;;;;5027820;28;20108;-91
2022/08/23 10:33:44;;;;;;;;;;;23.60;99.90;;;;;;5065586;28;19927;-92
2022/08/23 10:36:15;;;;;;;;;;;23.70;99.90;;;;;;5065294;28;19967;-92
2022/08/23 10:38:45;;;;;;;;;;;23.80;99.90;;;;;;5083222;28;19926;-91
2022/08/23 10:41:20;;;;;;;;;;;23.90;99.90;;;;;;5073887;28;20272;-91
2022/08/23 10:43:51;;;;;;;;;;;24.00;99.90;;;;;;5072778;28;19925;-90
2022/08/23 10:46:19;;;;;;;;;;;24.00;99.90;;;;;;5081364;28;20235;-91
2022/08/23 10:48:50;;;;;;;;;;;24.20;99.90;;;;;;5081506;28;19927;-86
2022/08/23 10:51:21;;;;;;;;;;;24.30;99.90;;;;;;5082410;28;19948;-86
2022/08/23 10:53:55;;;;;;;;;;;24.40;99.90;;;;;;5066797;28;19924;-86
2022/08/23 10:56:22;;;;;;;;;;;24.50;99.90;;;;;;5063597;28;20089;-85
2022/08/23 10:58:51;;;;;;;;;;;24.70;99.90;;;;;;5069757;28;20169;-85
2022/08/23 11:01:21;;;;;;;;;;;24.70;99.90;;;;;;5063114;28;19920;-83
2022/08/23 11:03:52;;;;;;;;;;;24.80;99.90;;;;;;5059668;28;20224;-84
2022/08/23 11:06:43;;;;;;;;;;;24.80;99.90;;;;;;5059076;28;19928;-84
2022/08/23 11:09:28;;;;;;;;;;;24.90;99.90;;;;;;5043177;28;19952;-85
2022/08/23 11:12:08;;;;;;;;;;;24.90;99.90;;;;;;5062894;28;19921;-84
2022/08/23 11:14:37;;;;;;;;;;;25.10;99.90;;;;;;5062555;28;19983;-84
2022/08/23 11:17:07;;;;;;;;;;;25.20;99.90;;;;;;5063120;28;19992;-85
2022/08/23 11:19:47;;;;;;;;;;;25.20;99.90;;;;;;5063120;28;20220;-85
2022/08/23 11:25:35;;;;;;;;;;;25.50;99.90;;;;;;5057312;28;20157;-83
2022/08/23 11:28:16;;;;;;;;;;;25.60;99.90;;;;;;5060026;28;19920;-86
2022/08/23 11:30:47;;;;;;;;;;;25.90;99.90;;;;;;5062442;28;20211;-85
2022/08/23 11:33:16;;;;;;;;;;;25.90;99.90;;;;;;5062735;28;19929;-85
2022/08/23 11:35:44;;;;;;;;;;;26.00;99.90;;;;;;5063641;28;19926;-84
2022/08/23 11:38:11;;;;;;;;;;;26.10;99.90;;;;;;5065674;28;19928;-83
2022/08/23 11:40:40;;;;;;;;;;;26.10;99.90;;;;;;5066676;28;19920;-84
2022/08/23 11:43:11;;;;;;;;;;;26.10;99.80;;;;;;5067160;28;19927;-85
2022/08/23 11:45:43;;;;;;;;;;;26.20;99.90;;;;;;5067627;28;19920;-85
2022/08/23 11:48:17;;;;;;;;;;;26.30;99.10;;;;;;5069252;28;19928;-86
2022/08/23 11:51:01;;;;;;;;;;;26.40;99.30;;;;;;5062604;28;19922;-86
2022/08/23 11:53:41;;;;;;;;;;;26.50;99.20;;;;;;5066790;28;19951;-84
2022/08/23 11:56:26;;;;;;;;;;;26.50;99.20;;;;;;5067594;28;19955;-86
2022/08/23 11:59:01;;;;;;;;;;;26.70;98.80;;;;;;5067788;28;20004;-85
2022/08/23 12:01:30;;;;;;;;;;;26.80;99.40;;;;;;5067296;28;20123;-84
2022/08/23 12:03:59;;;;;;;;;;;26.90;98.50;;;;;;5066130;28;19921;-84
2022/08/23 12:06:37;;;;;;;;;;;26.90;97.90;;;;;;5066855;28;19927;-86
2022/08/23 12:09:05;;;;;;;;;;;27.00;99.50;;;;;;5067474;28;19940;-88
2022/08/23 12:11:50;;;;;;;;;;;27.30;97.90;;;;;;5068584;28;19992;-84
2022/08/23 12:14:35;;;;;;;;;;;27.50;97.60;;;;;;5067089;28;19920;-84
2022/08/23 12:17:04;;;;;;;;;;;27.40;96.50;;;;;;5064000;28;20322;-84
2022/08/23 12:19:34;;;;;;;;;;;27.40;95.90;;;;;;5067599;28;19921;-84
2022/08/23 12:22:06;;;;;;;;;;;27.40;96.80;;;;;;5067494;28;19952;-85
2022/08/23 12:24:39;;;;;;;;;;;27.50;97.00;;;;;;5067049;28;19988;-84
2022/08/23 12:27:12;;;;;;;;;;;27.70;96.40;;;;;;5067665;28;19995;-84
2022/08/23 12:29:52;;;;;;;;;;;27.80;95.10;;;;;;5066708;28;19932;-85
2022/08/23 12:32:23;;;;;;;;;;;27.90;95.80;;;;;;5067214;28;19928;-85
2022/08/23 12:34:56;;;;;;;;;;;28.00;95.30;;;;;;5058645;28;19929;-83
2022/08/23 12:37:27;;;;;;;;;;;28.00;94.50;;;;;;5067039;28;19921;-84
2022/08/23 12:39:55;;;;;;;;;;;27.90;93.80;;;;;;5066912;28;19921;-84
2022/08/23 12:42:25;;;;;;;;;;;27.80;94.10;;;;;;5066790;28;20097;-84
2022/08/23 12:44:59;;;;;;;;;;;27.80;94.40;;;;;;5066378;28;19952;-84
2022/08/23 12:47:26;;;;;;;;;;;27.90;94.20;;;;;;5066982;28;19955;-84
2022/08/23 12:49:59;;;;;;;;;;;28.20;94.40;;;;;;5067206;28;19955;-84
2022/08/23 12:52:27;;;;;;;;;;;28.40;93.40;;;;;;5067897;28;20308;-86
2022/08/23 12:54:56;;;;;;;;;;;28.60;92.30;;;;;;5065706;28;19921;-85
2022/08/23 12:57:27;;;;;;;;;;;28.60;92.20;;;;;;5065158;28;20154;-83
2022/08/23 12:59:58;;;;;;;;;;;28.60;91.70;;;;;;5066771;28;19921;-84
2022/08/23 13:02:26;;;;;;;;;;;28.50;91.90;;;;;;5066806;28;19932;-84
2022/08/23 13:04:55;;;;;;;;;;;28.50;91.10;;;;;;5066211;28;19959;-84
2022/08/23 13:07:25;;;;;;;;;;;28.70;91.10;;;;;;5066599;28;20133;-84
2022/08/23 13:09:52;;;;;;;;;;;28.80;91.10;;;;;;5067245;28;20159;-84
2022/08/23 13:12:19;;;;;;;;;;;29.10;91.10;;;;;;5066728;28;19921;-85
2022/08/23 13:14:47;;;;;;;;;;;29.40;90.20;;;;;;5065143;28;20216;-84
2022/08/23 13:17:16;;;;;;;;;;;29.60;90.10;;;;;;5066945;28;19953;-86
2022/08/23 13:19:42;;;;;;;;;;;29.60;88.70;;;;;;5065455;28;20242;-84
2022/08/23 13:22:10;;;;;;;;;;;29.40;87.80;;;;;;5065589;28;19929;-85
2022/08/23 13:24:39;;;;;;;;;;;29.40;88.60;;;;;;5064999;28;19921;-85
2022/08/23 13:27:21;;;;;;;;;;;29.60;87.50;;;;;;5065105;28;19921;-85
2022/08/23 13:29:48;;;;;;;;;;;29.80;87.70;;;;;;5064962;28;19984;-83
2022/08/23 13:32:24;;;;;;;;;;;29.80;84.90;;;;;;5064574;28;19956;-84
2022/08/23 13:34:52;;;;;;;;;;;29.80;85.80;;;;;;5064250;28;19952;-84
2022/08/23 13:37:21;;;;;;;;;;;29.70;85.20;;;;;;5064595;28;19983;-85
2022/08/23 13:39:51;;;;;;;;;;;29.80;86.10;;;;;;5064469;28;19962;-85
2022/08/23 13:42:31;;;;;;;;;;;29.70;85.20;;;;;;5064279;28;19971;-82
2022/08/23 13:45:05;;;;;;;;;;;29.90;84.90;;;;;;5065089;28;19921;-84
2022/08/23 13:47:32;;;;;;;;;;;29.90;86.30;;;;;;5064666;28;20238;-83
2022/08/23 13:50:00;;;;;;;;;;;30.10;83.60;;;;;;5065136;28;19963;-84
2022/08/23 13:52:26;;;;;;;;;;;30.00;82.20;;;;;;5065022;28;19921;-85
2022/08/23 13:54:55;;;;;;;;;;;30.00;84.20;;;;;;5065060;28;19956;-83
2022/08/23 13:57:22;;;;;;;;;;;30.00;82.20;;;;;;5064695;28;19927;-90
2022/08/23 13:59:50;;;;;;;;;;;30.00;82.00;;;;;;5064883;28;20211;-83
2022/08/23 14:02:17;;;;;;;;;;;30.10;82.90;;;;;;5063754;28;19940;-83
2022/08/23 14:04:44;;;;;;;;;;;30.10;82.70;;;;;;5064368;28;19921;-85
2022/08/23 14:07:11;;;;;;;;;;;30.10;80.80;;;;;;5065367;28;20182;-83
2022/08/23 14:09:38;;;;;;;;;;;30.10;81.10;;;;;;5064322;28;19988;-85
2022/08/23 14:12:07;;;;;;;;;;;30.10;80.50;;;;;;5064438;28;19925;-83
2022/08/23 14:14:35;;;;;;;;;;;30.20;80.00;;;;;;5043861;28;19983;-83
2022/08/23 14:17:02;;;;;;;;;;;30.30;78.90;;;;;;5053959;28;20172;-82
2022/08/23 14:19:29;;;;;;;;;;;30.30;79.20;;;;;;5061426;28;19967;-82
2022/08/23 14:21:56;;;;;;;;;;;30.30;79.70;;;;;;5062008;28;19920;-83
2022/08/23 14:24:23;;;;;;;;;;;30.40;79.00;;;;;;5063626;28;19928;-84
2022/08/23 14:26:50;;;;;;;;;;;30.40;78.60;;;;;;5064636;28;19921;-83
2022/08/23 14:29:18;;;;;;;;;;;30.30;78.20;;;;;;5044525;28;19956;-83
2022/08/23 14:31:45;;;;;;;;;;;30.50;78.90;;;;;;5063113;28;19982;-83
2022/08/23 14:34:11;;;;;;;;;;;30.60;78.50;;;;;;5063553;28;19963;-83
2022/08/23 14:36:39;;;;;;;;;;;30.70;77.90;;;;;;5063638;28;19921;-91
2022/08/23 14:39:05;;;;;;;;;;;30.70;78.10;;;;;;5064978;28;19944;-84
2022/08/23 14:41:32;;;;;;;;;;;30.80;75.80;;;;;;5062280;28;19929;-84